sensor_id;sensor_type;location;lat;lon;timestamp;P1;durP1;ratioP1;P2;durP2;ratioP2
9860;SDS011;4969;52.304;4.968;2023-09-07T00:01:47;6.25;;;5.13;;
9860;SDS011;4969;52.304;4.968;2023-09-07T00:04:13;5.20;;;4.70;;
9860;SDS011;4969;52.304;4.968;2023-09-07T00:06:40;5.57;;;5.07;;
9860;SDS011;4969;52.304;4.968;2023-09-07T00:09:08;5.03;;;4.55;;
9860;SDS011;4969;52.304;4.968;2023-09-07T00:11:37;5.05;;;4.65;;
9860;SDS011;4969;52.304;4.968;2023-09-07T00:14:03;4.80;;;4.40;;
9860;SDS011;4969;52.304;4.968;2023-09-07T00:16:31;5.50;;;5.10;;
9860;SDS011;4969;52.304;4.968;2023-09-07T00:19:00;5.32;;;4.82;;
9860;SDS011;4969;52.304;4.968;2023-09-07T00:21:28;5.28;;;4.88;;
9860;SDS011;4969;52.304;4.968;2023-09-07T00:23:54;4.80;;;4.50;;
9860;SDS011;4969;52.304;4.968;2023-09-07T00:26:21;4.97;;;4.53;;
9860;SDS011;4969;52.304;4.968;2023-09-07T00:28:48;5.82;;;4.57;;
9860;SDS011;4969;52.304;4.968;2023-09-07T00:31:14;4.82;;;4.43;;
9860;SDS011;4969;52.304;4.968;2023-09-07T00:33:41;6.57;;;4.85;;
9860;SDS011;4969;52.304;4.968;2023-09-07T00:36:09;5.05;;;4.65;;
9860;SDS011;4969;52.304;4.968;2023-09-07T00:38:35;5.20;;;4.75;;
9860;SDS011;4969;52.304;4.968;2023-09-07T00:41:02;5.00;;;4.60;;
9860;SDS011;4969;52.304;4.968;2023-09-07T00:43:28;5.30;;;4.90;;
9860;SDS011;4969;52.304;4.968;2023-09-07T00:45:55;5.68;;;4.60;;
9860;SDS011;4969;52.304;4.968;2023-09-07T00:48:22;4.90;;;4.50;;
9860;SDS011;4969;52.304;4.968;2023-09-07T00:50:49;5.03;;;4.53;;
9860;SDS011;4969;52.304;4.968;2023-09-07T00:53:17;5.20;;;4.75;;
9860;SDS011;4969;52.304;4.968;2023-09-07T00:55:44;5.38;;;4.63;;
9860;SDS011;4969;52.304;4.968;2023-09-07T00:58:10;5.50;;;5.00;;
9860;SDS011;4969;52.304;4.968;2023-09-07T01:00:38;5.63;;;5.22;;
9860;SDS011;4969;52.304;4.968;2023-09-07T01:03:05;5.72;;;4.47;;
9860;SDS011;4969;52.304;4.968;2023-09-07T01:05:33;4.97;;;4.68;;
9860;SDS011;4969;52.304;4.968;2023-09-07T01:08:07;4.78;;;4.38;;
9860;SDS011;4969;52.304;4.968;2023-09-07T01:10:39;7.05;;;5.10;;
9860;SDS011;4969;52.304;4.968;2023-09-07T01:13:06;5.15;;;4.78;;
9860;SDS011;4969;52.304;4.968;2023-09-07T01:15:32;5.32;;;4.88;;
9860;SDS011;4969;52.304;4.968;2023-09-07T01:17:59;5.43;;;4.85;;
9860;SDS011;4969;52.304;4.968;2023-09-07T01:20:26;5.55;;;5.05;;
9860;SDS011;4969;52.304;4.968;2023-09-07T01:22:56;5.75;;;4.95;;
9860;SDS011;4969;52.304;4.968;2023-09-07T01:25:23;5.18;;;4.75;;
9860;SDS011;4969;52.304;4.968;2023-09-07T01:27:50;5.25;;;4.75;;
9860;SDS011;4969;52.304;4.968;2023-09-07T01:30:17;5.25;;;4.75;;
9860;SDS011;4969;52.304;4.968;2023-09-07T01:32:44;7.72;;;4.80;;
9860;SDS011;4969;52.304;4.968;2023-09-07T01:35:11;4.97;;;4.57;;
9860;SDS011;4969;52.304;4.968;2023-09-07T01:37:41;5.05;;;4.65;;
9860;SDS011;4969;52.304;4.968;2023-09-07T01:40:10;4.82;;;4.43;;
9860;SDS011;4969;52.304;4.968;2023-09-07T01:42:36;5.53;;;4.97;;
9860;SDS011;4969;52.304;4.968;2023-09-07T01:45:03;5.30;;;4.90;;
9860;SDS011;4969;52.304;4.968;2023-09-07T01:47:30;5.20;;;4.80;;
9860;SDS011;4969;52.304;4.968;2023-09-07T01:49:57;6.20;;;5.43;;
9860;SDS011;4969;52.304;4.968;2023-09-07T01:52:24;5.13;;;4.70;;
9860;SDS011;4969;52.304;4.968;2023-09-07T01:54:50;5.53;;;5.03;;
9860;SDS011;4969;52.304;4.968;2023-09-07T01:57:18;6.07;;;5.20;;
9860;SDS011;4969;52.304;4.968;2023-09-07T01:59:45;7.05;;;4.63;;
9860;SDS011;4969;52.304;4.968;2023-09-07T02:02:13;5.97;;;5.47;;
9860;SDS011;4969;52.304;4.968;2023-09-07T02:04:40;5.25;;;4.75;;
9860;SDS011;4969;52.304;4.968;2023-09-07T02:07:10;5.28;;;4.93;;
9860;SDS011;4969;52.304;4.968;2023-09-07T02:09:37;5.65;;;5.13;;
9860;SDS011;4969;52.304;4.968;2023-09-07T02:12:04;4.70;;;4.40;;
9860;SDS011;4969;52.304;4.968;2023-09-07T02:14:32;5.40;;;5.00;;
9860;SDS011;4969;52.304;4.968;2023-09-07T02:16:59;5.90;;;5.18;;
9860;SDS011;4969;52.304;4.968;2023-09-07T02:19:25;6.05;;;5.40;;
9860;SDS011;4969;52.304;4.968;2023-09-07T02:21:52;7.60;;;5.60;;
9860;SDS011;4969;52.304;4.968;2023-09-07T02:24:19;5.68;;;5.28;;
9860;SDS011;4969;52.304;4.968;2023-09-07T02:26:46;5.57;;;5.05;;
9860;SDS011;4969;52.304;4.968;2023-09-07T02:29:12;5.55;;;5.07;;
9860;SDS011;4969;52.304;4.968;2023-09-07T02:31:40;7.20;;;5.60;;
9860;SDS011;4969;52.304;4.968;2023-09-07T02:34:07;6.30;;;5.70;;
9860;SDS011;4969;52.304;4.968;2023-09-07T02:36:34;6.60;;;5.63;;
9860;SDS011;4969;52.304;4.968;2023-09-07T02:39:00;6.05;;;5.32;;
9860;SDS011;4969;52.304;4.968;2023-09-07T02:41:28;6.05;;;5.57;;
9860;SDS011;4969;52.304;4.968;2023-09-07T02:43:56;6.28;;;5.38;;
9860;SDS011;4969;52.304;4.968;2023-09-07T02:46:23;6.03;;;5.55;;
9860;SDS011;4969;52.304;4.968;2023-09-07T02:48:51;7.35;;;5.60;;
9860;SDS011;4969;52.304;4.968;2023-09-07T02:51:19;5.88;;;5.38;;
9860;SDS011;4969;52.304;4.968;2023-09-07T02:53:46;6.95;;;5.45;;
9860;SDS011;4969;52.304;4.968;2023-09-07T02:56:12;5.82;;;5.30;;
9860;SDS011;4969;52.304;4.968;2023-09-07T02:58:39;5.90;;;5.40;;
9860;SDS011;4969;52.304;4.968;2023-09-07T03:01:06;5.80;;;5.40;;
9860;SDS011;4969;52.304;4.968;2023-09-07T03:03:33;5.93;;;5.43;;
9860;SDS011;4969;52.304;4.968;2023-09-07T03:06:08;6.25;;;5.65;;
9860;SDS011;4969;52.304;4.968;2023-09-07T03:08:35;5.63;;;5.22;;
9860;SDS011;4969;52.304;4.968;2023-09-07T03:11:02;6.00;;;5.60;;
9860;SDS011;4969;52.304;4.968;2023-09-07T03:13:29;6.32;;;5.30;;
9860;SDS011;4969;52.304;4.968;2023-09-07T03:15:56;6.30;;;5.72;;
9860;SDS011;4969;52.304;4.968;2023-09-07T03:18:22;6.07;;;5.53;;
9860;SDS011;4969;52.304;4.968;2023-09-07T03:20:49;6.35;;;5.78;;
9860;SDS011;4969;52.304;4.968;2023-09-07T03:23:17;7.40;;;6.63;;
9860;SDS011;4969;52.304;4.968;2023-09-07T03:25:44;6.25;;;5.85;;
9860;SDS011;4969;52.304;4.968;2023-09-07T03:28:11;7.68;;;6.85;;
9860;SDS011;4969;52.304;4.968;2023-09-07T03:30:38;6.47;;;5.70;;
9860;SDS011;4969;52.304;4.968;2023-09-07T03:33:04;6.57;;;5.97;;
9860;SDS011;4969;52.304;4.968;2023-09-07T03:35:31;6.50;;;5.75;;
9860;SDS011;4969;52.304;4.968;2023-09-07T03:37:58;6.85;;;6.35;;
9860;SDS011;4969;52.304;4.968;2023-09-07T03:40:26;7.30;;;6.75;;
9860;SDS011;4969;52.304;4.968;2023-09-07T03:42:52;6.78;;;6.20;;
9860;SDS011;4969;52.304;4.968;2023-09-07T03:45:19;7.78;;;6.50;;
9860;SDS011;4969;52.304;4.968;2023-09-07T03:47:45;8.48;;;6.80;;
9860;SDS011;4969;52.304;4.968;2023-09-07T03:50:12;8.68;;;6.95;;
9860;SDS011;4969;52.304;4.968;2023-09-07T03:52:39;7.47;;;6.78;;
9860;SDS011;4969;52.304;4.968;2023-09-07T03:55:06;7.80;;;7.10;;
9860;SDS011;4969;52.304;4.968;2023-09-07T03:57:34;8.18;;;7.47;;
9860;SDS011;4969;52.304;4.968;2023-09-07T04:00:01;6.72;;;6.13;;
9860;SDS011;4969;52.304;4.968;2023-09-07T04:02:33;7.88;;;7.15;;
9860;SDS011;4969;52.304;4.968;2023-09-07T04:05:00;7.57;;;6.97;;
9860;SDS011;4969;52.304;4.968;2023-09-07T04:07:30;8.00;;;7.20;;
9860;SDS011;4969;52.304;4.968;2023-09-07T04:09:56;8.38;;;7.55;;
9860;SDS011;4969;52.304;4.968;2023-09-07T04:12:23;8.35;;;7.55;;
9860;SDS011;4969;52.304;4.968;2023-09-07T04:14:52;7.72;;;7.10;;
9860;SDS011;4969;52.304;4.968;2023-09-07T04:17:18;7.70;;;7.10;;
9860;SDS011;4969;52.304;4.968;2023-09-07T04:19:45;8.10;;;7.50;;
9860;SDS011;4969;52.304;4.968;2023-09-07T04:22:12;8.40;;;7.75;;
9860;SDS011;4969;52.304;4.968;2023-09-07T04:24:38;8.32;;;7.50;;
9860;SDS011;4969;52.304;4.968;2023-09-07T04:27:05;8.18;;;7.57;;
9860;SDS011;4969;52.304;4.968;2023-09-07T04:29:32;9.27;;;7.80;;
9860;SDS011;4969;52.304;4.968;2023-09-07T04:32:00;7.70;;;7.10;;
9860;SDS011;4969;52.304;4.968;2023-09-07T04:34:27;8.27;;;7.60;;
9860;SDS011;4969;52.304;4.968;2023-09-07T04:36:53;9.18;;;8.27;;
9860;SDS011;4969;52.304;4.968;2023-09-07T04:39:20;7.15;;;6.03;;
9860;SDS011;4969;52.304;4.968;2023-09-07T04:41:47;6.95;;;5.78;;
9860;SDS011;4969;52.304;4.968;2023-09-07T04:44:13;6.45;;;5.88;;
9860;SDS011;4969;52.304;4.968;2023-09-07T04:46:39;6.25;;;5.75;;
9860;SDS011;4969;52.304;4.968;2023-09-07T04:49:07;6.30;;;5.88;;
9860;SDS011;4969;52.304;4.968;2023-09-07T04:51:34;7.13;;;6.43;;
9860;SDS011;4969;52.304;4.968;2023-09-07T04:54:00;6.90;;;5.63;;
9860;SDS011;4969;52.304;4.968;2023-09-07T04:56:27;6.50;;;5.97;;
9860;SDS011;4969;52.304;4.968;2023-09-07T04:58:54;7.22;;;6.57;;
9860;SDS011;4969;52.304;4.968;2023-09-07T05:01:20;5.70;;;5.20;;
9860;SDS011;4969;52.304;4.968;2023-09-07T05:03:47;6.38;;;5.78;;
9860;SDS011;4969;52.304;4.968;2023-09-07T05:06:17;6.45;;;5.90;;
9860;SDS011;4969;52.304;4.968;2023-09-07T05:08:44;6.95;;;6.25;;
9860;SDS011;4969;52.304;4.968;2023-09-07T05:11:10;6.50;;;6.10;;
9860;SDS011;4969;52.304;4.968;2023-09-07T05:13:37;7.32;;;6.63;;
9860;SDS011;4969;52.304;4.968;2023-09-07T05:16:03;7.88;;;6.40;;
9860;SDS011;4969;52.304;4.968;2023-09-07T05:18:30;7.28;;;6.38;;
9860;SDS011;4969;52.304;4.968;2023-09-07T05:20:57;8.93;;;6.30;;
9860;SDS011;4969;52.304;4.968;2023-09-07T05:23:25;9.65;;;6.10;;
9860;SDS011;4969;52.304;4.968;2023-09-07T05:25:52;7.63;;;6.32;;
9860;SDS011;4969;52.304;4.968;2023-09-07T05:28:21;7.65;;;6.60;;
9860;SDS011;4969;52.304;4.968;2023-09-07T05:30:48;7.57;;;6.15;;
9860;SDS011;4969;52.304;4.968;2023-09-07T05:33:16;6.93;;;6.20;;
9860;SDS011;4969;52.304;4.968;2023-09-07T05:35:43;9.00;;;6.20;;
9860;SDS011;4969;52.304;4.968;2023-09-07T05:38:11;7.68;;;6.00;;
9860;SDS011;4969;52.304;4.968;2023-09-07T05:40:39;6.68;;;6.07;;
9860;SDS011;4969;52.304;4.968;2023-09-07T05:43:07;6.40;;;5.80;;
9860;SDS011;4969;52.304;4.968;2023-09-07T05:45:34;7.15;;;6.43;;
9860;SDS011;4969;52.304;4.968;2023-09-07T05:48:02;7.22;;;6.18;;
9860;SDS011;4969;52.304;4.968;2023-09-07T05:50:29;6.95;;;6.03;;
9860;SDS011;4969;52.304;4.968;2023-09-07T05:52:57;6.65;;;6.00;;
9860;SDS011;4969;52.304;4.968;2023-09-07T05:55:24;7.97;;;6.00;;
9860;SDS011;4969;52.304;4.968;2023-09-07T05:57:53;6.88;;;6.18;;
9860;SDS011;4969;52.304;4.968;2023-09-07T06:00:20;7.00;;;6.40;;
9860;SDS011;4969;52.304;4.968;2023-09-07T06:02:47;6.60;;;5.95;;
9860;SDS011;4969;52.304;4.968;2023-09-07T06:05:14;6.78;;;6.10;;
9860;SDS011;4969;52.304;4.968;2023-09-07T06:07:40;7.57;;;5.82;;
9860;SDS011;4969;52.304;4.968;2023-09-07T06:10:07;7.85;;;6.43;;
9860;SDS011;4969;52.304;4.968;2023-09-07T06:12:34;6.65;;;6.05;;
9860;SDS011;4969;52.304;4.968;2023-09-07T06:15:03;6.25;;;5.75;;
9860;SDS011;4969;52.304;4.968;2023-09-07T06:17:29;7.85;;;5.78;;
9860;SDS011;4969;52.304;4.968;2023-09-07T06:19:56;7.57;;;6.15;;
9860;SDS011;4969;52.304;4.968;2023-09-07T06:22:23;6.47;;;5.97;;
9860;SDS011;4969;52.304;4.968;2023-09-07T06:24:49;6.88;;;5.97;;
9860;SDS011;4969;52.304;4.968;2023-09-07T06:27:16;8.90;;;6.18;;
9860;SDS011;4969;52.304;4.968;2023-09-07T06:29:43;6.65;;;6.05;;
9860;SDS011;4969;52.304;4.968;2023-09-07T06:32:11;7.53;;;6.40;;
9860;SDS011;4969;52.304;4.968;2023-09-07T06:34:37;7.13;;;6.53;;
9860;SDS011;4969;52.304;4.968;2023-09-07T06:37:04;7.15;;;6.50;;
9860;SDS011;4969;52.304;4.968;2023-09-07T06:39:31;8.60;;;7.28;;
9860;SDS011;4969;52.304;4.968;2023-09-07T06:41:58;6.50;;;5.90;;
9860;SDS011;4969;52.304;4.968;2023-09-07T06:44:25;7.28;;;6.57;;
9860;SDS011;4969;52.304;4.968;2023-09-07T06:46:51;7.70;;;6.85;;
9860;SDS011;4969;52.304;4.968;2023-09-07T06:49:19;6.88;;;6.13;;
9860;SDS011;4969;52.304;4.968;2023-09-07T06:51:46;6.82;;;6.13;;
9860;SDS011;4969;52.304;4.968;2023-09-07T06:54:13;10.30;;;7.22;;
9860;SDS011;4969;52.304;4.968;2023-09-07T06:56:39;7.13;;;6.22;;
9860;SDS011;4969;52.304;4.968;2023-09-07T06:59:06;8.25;;;6.95;;
9860;SDS011;4969;52.304;4.968;2023-09-07T07:01:33;7.30;;;6.60;;
9860;SDS011;4969;52.304;4.968;2023-09-07T07:03:59;7.97;;;6.43;;
9860;SDS011;4969;52.304;4.968;2023-09-07T07:06:27;8.13;;;6.53;;
9860;SDS011;4969;52.304;4.968;2023-09-07T07:08:54;7.45;;;6.45;;
9860;SDS011;4969;52.304;4.968;2023-09-07T07:11:21;6.68;;;6.05;;
9860;SDS011;4969;52.304;4.968;2023-09-07T07:13:47;6.75;;;6.20;;
9860;SDS011;4969;52.304;4.968;2023-09-07T07:16:14;6.68;;;6.18;;
9860;SDS011;4969;52.304;4.968;2023-09-07T07:18:42;6.20;;;5.72;;
9860;SDS011;4969;52.304;4.968;2023-09-07T07:21:09;5.90;;;5.50;;
9860;SDS011;4969;52.304;4.968;2023-09-07T07:23:37;6.85;;;6.35;;
9860;SDS011;4969;52.304;4.968;2023-09-07T07:26:03;6.25;;;5.68;;
9860;SDS011;4969;52.304;4.968;2023-09-07T07:28:30;7.28;;;5.75;;
9860;SDS011;4969;52.304;4.968;2023-09-07T07:30:57;6.00;;;5.50;;
9860;SDS011;4969;52.304;4.968;2023-09-07T07:33:23;6.88;;;5.57;;
9860;SDS011;4969;52.304;4.968;2023-09-07T07:35:50;7.03;;;5.60;;
9860;SDS011;4969;52.304;4.968;2023-09-07T07:38:17;5.75;;;5.18;;
9860;SDS011;4969;52.304;4.968;2023-09-07T07:40:46;5.80;;;5.10;;
9860;SDS011;4969;52.304;4.968;2023-09-07T07:43:12;5.78;;;5.18;;
9860;SDS011;4969;52.304;4.968;2023-09-07T07:45:39;5.80;;;5.30;;
9860;SDS011;4969;52.304;4.968;2023-09-07T07:48:06;6.75;;;4.80;;
9860;SDS011;4969;52.304;4.968;2023-09-07T07:50:36;5.30;;;4.80;;
9860;SDS011;4969;52.304;4.968;2023-09-07T07:53:04;5.82;;;5.28;;
9860;SDS011;4969;52.304;4.968;2023-09-07T07:55:33;7.57;;;5.32;;
9860;SDS011;4969;52.304;4.968;2023-09-07T07:58:05;6.40;;;5.05;;
9860;SDS011;4969;52.304;4.968;2023-09-07T08:00:32;5.40;;;4.63;;
9860;SDS011;4969;52.304;4.968;2023-09-07T08:02:59;5.15;;;4.75;;
9860;SDS011;4969;52.304;4.968;2023-09-07T08:05:27;5.72;;;5.13;;
9860;SDS011;4969;52.304;4.968;2023-09-07T08:07:53;6.35;;;5.22;;
9860;SDS011;4969;52.304;4.968;2023-09-07T08:10:20;6.38;;;4.70;;
9860;SDS011;4969;52.304;4.968;2023-09-07T08:12:47;6.82;;;5.05;;
9860;SDS011;4969;52.304;4.968;2023-09-07T08:15:15;5.43;;;4.75;;
9860;SDS011;4969;52.304;4.968;2023-09-07T08:17:45;6.82;;;4.78;;
9860;SDS011;4969;52.304;4.968;2023-09-07T08:20:12;5.45;;;4.78;;
9860;SDS011;4969;52.304;4.968;2023-09-07T08:22:39;6.57;;;4.60;;
9860;SDS011;4969;52.304;4.968;2023-09-07T08:25:07;5.18;;;4.35;;
9860;SDS011;4969;52.304;4.968;2023-09-07T08:27:34;5.55;;;4.55;;
9860;SDS011;4969;52.304;4.968;2023-09-07T08:30:01;4.50;;;4.20;;
9860;SDS011;4969;52.304;4.968;2023-09-07T08:32:30;8.60;;;4.45;;
9860;SDS011;4969;52.304;4.968;2023-09-07T08:34:56;5.82;;;4.95;;
9860;SDS011;4969;52.304;4.968;2023-09-07T08:37:25;6.88;;;4.88;;
9860;SDS011;4969;52.304;4.968;2023-09-07T08:39:53;5.95;;;4.15;;
9860;SDS011;4969;52.304;4.968;2023-09-07T08:42:20;4.40;;;4.10;;
9860;SDS011;4969;52.304;4.968;2023-09-07T08:44:47;4.60;;;4.20;;
9860;SDS011;4969;52.304;4.968;2023-09-07T08:47:17;4.60;;;4.20;;
9860;SDS011;4969;52.304;4.968;2023-09-07T08:49:46;5.30;;;4.65;;
9860;SDS011;4969;52.304;4.968;2023-09-07T08:52:13;4.47;;;4.07;;
9860;SDS011;4969;52.304;4.968;2023-09-07T08:54:41;4.40;;;4.00;;
9860;SDS011;4969;52.304;4.968;2023-09-07T08:57:09;4.60;;;4.20;;
9860;SDS011;4969;52.304;4.968;2023-09-07T08:59:37;4.70;;;4.30;;
9860;SDS011;4969;52.304;4.968;2023-09-07T09:02:06;4.07;;;3.78;;
9860;SDS011;4969;52.304;4.968;2023-09-07T09:04:36;5.00;;;4.60;;
9860;SDS011;4969;52.304;4.968;2023-09-07T09:07:05;5.28;;;3.90;;
9860;SDS011;4969;52.304;4.968;2023-09-07T09:09:32;6.05;;;4.65;;
9860;SDS011;4969;52.304;4.968;2023-09-07T09:12:06;7.90;;;4.20;;
9860;SDS011;4969;52.304;4.968;2023-09-07T09:14:33;8.02;;;4.72;;
9860;SDS011;4969;52.304;4.968;2023-09-07T09:16:59;4.03;;;3.80;;
9860;SDS011;4969;52.304;4.968;2023-09-07T09:19:32;4.10;;;3.70;;
9860;SDS011;4969;52.304;4.968;2023-09-07T09:21:59;6.32;;;4.40;;
9860;SDS011;4969;52.304;4.968;2023-09-07T09:24:31;5.00;;;4.25;;
9860;SDS011;4969;52.304;4.968;2023-09-07T09:26:58;5.30;;;4.32;;
9860;SDS011;4969;52.304;4.968;2023-09-07T09:29:24;5.63;;;3.90;;
9860;SDS011;4969;52.304;4.968;2023-09-07T09:31:52;6.20;;;4.22;;
9860;SDS011;4969;52.304;4.968;2023-09-07T09:34:19;4.50;;;4.20;;
9860;SDS011;4969;52.304;4.968;2023-09-07T09:36:46;6.53;;;4.20;;
9860;SDS011;4969;52.304;4.968;2023-09-07T09:39:21;5.57;;;4.65;;
9860;SDS011;4969;52.304;4.968;2023-09-07T09:41:50;5.57;;;4.13;;
9860;SDS011;4969;52.304;4.968;2023-09-07T09:44:17;4.70;;;4.30;;
9860;SDS011;4969;52.304;4.968;2023-09-07T09:46:46;4.63;;;4.15;;
9860;SDS011;4969;52.304;4.968;2023-09-07T09:49:13;4.55;;;4.15;;
9860;SDS011;4969;52.304;4.968;2023-09-07T09:51:42;5.00;;;4.50;;
9860;SDS011;4969;52.304;4.968;2023-09-07T09:54:08;4.15;;;3.75;;
9860;SDS011;4969;52.304;4.968;2023-09-07T09:56:35;4.88;;;4.47;;
9860;SDS011;4969;52.304;4.968;2023-09-07T09:59:03;4.63;;;4.13;;
9860;SDS011;4969;52.304;4.968;2023-09-07T10:01:35;4.75;;;3.47;;
9860;SDS011;4969;52.304;4.968;2023-09-07T10:04:06;4.35;;;3.95;;
9860;SDS011;4969;52.304;4.968;2023-09-07T10:06:35;4.18;;;3.80;;
9860;SDS011;4969;52.304;4.968;2023-09-07T10:09:02;10.13;;;4.32;;
9860;SDS011;4969;52.304;4.968;2023-09-07T10:11:32;5.30;;;4.07;;
9860;SDS011;4969;52.304;4.968;2023-09-07T10:14:00;4.63;;;4.20;;
9860;SDS011;4969;52.304;4.968;2023-09-07T10:16:30;4.50;;;4.10;;
9860;SDS011;4969;52.304;4.968;2023-09-07T10:19:13;4.40;;;4.00;;
9860;SDS011;4969;52.304;4.968;2023-09-07T10:21:40;4.38;;;3.95;;
9860;SDS011;4969;52.304;4.968;2023-09-07T10:24:07;4.03;;;3.70;;
9860;SDS011;4969;52.304;4.968;2023-09-07T10:26:34;4.38;;;3.97;;
9860;SDS011;4969;52.304;4.968;2023-09-07T10:29:01;4.22;;;3.80;;
9860;SDS011;4969;52.304;4.968;2023-09-07T10:31:31;4.75;;;4.22;;
9860;SDS011;4969;52.304;4.968;2023-09-07T10:34:07;4.22;;;3.83;;
9860;SDS011;4969;52.304;4.968;2023-09-07T10:36:35;4.28;;;3.70;;
9860;SDS011;4969;52.304;4.968;2023-09-07T10:39:03;4.95;;;3.85;;
9860;SDS011;4969;52.304;4.968;2023-09-07T10:41:39;6.13;;;4.00;;
9860;SDS011;4969;52.304;4.968;2023-09-07T10:44:06;5.25;;;4.07;;
9860;SDS011;4969;52.304;4.968;2023-09-07T10:46:34;7.22;;;3.67;;
9860;SDS011;4969;52.304;4.968;2023-09-07T10:49:06;5.00;;;3.80;;
9860;SDS011;4969;52.304;4.968;2023-09-07T10:51:39;4.32;;;3.50;;
9860;SDS011;4969;52.304;4.968;2023-09-07T10:54:13;5.25;;;3.88;;
9860;SDS011;4969;52.304;4.968;2023-09-07T10:56:40;4.60;;;3.80;;
9860;SDS011;4969;52.304;4.968;2023-09-07T10:59:06;4.63;;;3.72;;
9860;SDS011;4969;52.304;4.968;2023-09-07T11:01:35;5.72;;;3.70;;
9860;SDS011;4969;52.304;4.968;2023-09-07T11:06:43;4.85;;;3.58;;
9860;SDS011;4969;52.304;4.968;2023-09-07T11:09:11;3.97;;;3.42;;
9860;SDS011;4969;52.304;4.968;2023-09-07T11:11:45;4.65;;;3.50;;
9860;SDS011;4969;52.304;4.968;2023-09-07T11:14:12;3.97;;;3.67;;
9860;SDS011;4969;52.304;4.968;2023-09-07T11:16:40;3.58;;;3.38;;
9860;SDS011;4969;52.304;4.968;2023-09-07T11:19:08;3.70;;;3.33;;
9860;SDS011;4969;52.304;4.968;2023-09-07T11:21:35;5.47;;;3.88;;
9860;SDS011;4969;52.304;4.968;2023-09-07T11:24:02;5.53;;;3.10;;
9860;SDS011;4969;52.304;4.968;2023-09-07T11:26:40;4.05;;;3.30;;
9860;SDS011;4969;52.304;4.968;2023-09-07T11:29:07;3.38;;;3.17;;
9860;SDS011;4969;52.304;4.968;2023-09-07T11:31:34;4.22;;;3.53;;
9860;SDS011;4969;52.304;4.968;2023-09-07T11:34:02;3.67;;;3.30;;
9860;SDS011;4969;52.304;4.968;2023-09-07T11:36:29;3.97;;;3.50;;
9860;SDS011;4969;52.304;4.968;2023-09-07T11:38:55;4.00;;;3.40;;
9860;SDS011;4969;52.304;4.968;2023-09-07T11:41:22;6.75;;;3.35;;
9860;SDS011;4969;52.304;4.968;2023-09-07T11:43:49;7.00;;;3.50;;
9860;SDS011;4969;52.304;4.968;2023-09-07T11:46:15;3.50;;;3.08;;
9860;SDS011;4969;52.304;4.968;2023-09-07T11:48:42;11.80;;;3.60;;
9860;SDS011;4969;52.304;4.968;2023-09-07T11:51:10;3.35;;;3.05;;
9860;SDS011;4969;52.304;4.968;2023-09-07T11:53:36;3.58;;;3.28;;
9860;SDS011;4969;52.304;4.968;2023-09-07T11:56:03;3.25;;;3.00;;
9860;SDS011;4969;52.304;4.968;2023-09-07T11:58:30;3.35;;;3.15;;
9860;SDS011;4969;52.304;4.968;2023-09-07T12:00:57;3.30;;;2.90;;
9860;SDS011;4969;52.304;4.968;2023-09-07T12:03:23;3.40;;;3.08;;
9860;SDS011;4969;52.304;4.968;2023-09-07T12:05:50;3.63;;;3.33;;
9860;SDS011;4969;52.304;4.968;2023-09-07T12:08:18;5.20;;;3.67;;
9860;SDS011;4969;52.304;4.968;2023-09-07T12:10:44;4.45;;;3.63;;
9860;SDS011;4969;52.304;4.968;2023-09-07T12:13:12;5.70;;;3.10;;
9860;SDS011;4969;52.304;4.968;2023-09-07T12:15:39;27.23;;;3.58;;
9860;SDS011;4969;52.304;4.968;2023-09-07T12:18:05;3.70;;;3.28;;
9860;SDS011;4969;52.304;4.968;2023-09-07T12:20:32;4.03;;;3.72;;
9860;SDS011;4969;52.304;4.968;2023-09-07T12:22:59;3.30;;;3.00;;
9860;SDS011;4969;52.304;4.968;2023-09-07T12:25:28;5.18;;;3.50;;
9860;SDS011;4969;52.304;4.968;2023-09-07T12:27:55;3.15;;;2.95;;
9860;SDS011;4969;52.304;4.968;2023-09-07T12:30:22;5.65;;;3.45;;
9860;SDS011;4969;52.304;4.968;2023-09-07T12:32:49;7.65;;;3.40;;
9860;SDS011;4969;52.304;4.968;2023-09-07T12:35:16;7.45;;;3.38;;
9860;SDS011;4969;52.304;4.968;2023-09-07T12:37:45;3.90;;;3.47;;
9860;SDS011;4969;52.304;4.968;2023-09-07T12:40:11;6.63;;;3.80;;
9860;SDS011;4969;52.304;4.968;2023-09-07T12:42:40;3.95;;;3.65;;
9860;SDS011;4969;52.304;4.968;2023-09-07T12:45:08;3.88;;;3.17;;
9860;SDS011;4969;52.304;4.968;2023-09-07T12:47:35;4.70;;;3.30;;
9860;SDS011;4969;52.304;4.968;2023-09-07T12:50:03;3.53;;;3.22;;
9860;SDS011;4969;52.304;4.968;2023-09-07T12:52:30;3.50;;;3.20;;
9860;SDS011;4969;52.304;4.968;2023-09-07T12:54:56;4.95;;;3.20;;
9860;SDS011;4969;52.304;4.968;2023-09-07T12:57:23;5.10;;;3.40;;
9860;SDS011;4969;52.304;4.968;2023-09-07T12:59:51;3.53;;;3.22;;
9860;SDS011;4969;52.304;4.968;2023-09-07T13:02:17;3.65;;;3.30;;
9860;SDS011;4969;52.304;4.968;2023-09-07T13:04:44;3.80;;;3.50;;
9860;SDS011;4969;52.304;4.968;2023-09-07T13:07:11;4.05;;;3.75;;
9860;SDS011;4969;52.304;4.968;2023-09-07T13:09:37;4.25;;;3.95;;
9860;SDS011;4969;52.304;4.968;2023-09-07T13:12:04;3.92;;;3.63;;
9860;SDS011;4969;52.304;4.968;2023-09-07T13:14:31;4.60;;;4.20;;
9860;SDS011;4969;52.304;4.968;2023-09-07T13:16:59;7.75;;;4.65;;
9860;SDS011;4969;52.304;4.968;2023-09-07T13:19:26;5.10;;;4.60;;
9860;SDS011;4969;52.304;4.968;2023-09-07T13:21:54;11.18;;;4.70;;
9860;SDS011;4969;52.304;4.968;2023-09-07T13:24:20;5.47;;;4.15;;
9860;SDS011;4969;52.304;4.968;2023-09-07T13:26:48;6.18;;;4.72;;
9860;SDS011;4969;52.304;4.968;2023-09-07T13:29:16;9.48;;;4.60;;
9860;SDS011;4969;52.304;4.968;2023-09-07T13:31:43;5.82;;;4.60;;
9860;SDS011;4969;52.304;4.968;2023-09-07T13:34:11;6.47;;;4.22;;
9860;SDS011;4969;52.304;4.968;2023-09-07T13:36:38;6.40;;;4.18;;
9860;SDS011;4969;52.304;4.968;2023-09-07T13:39:05;5.75;;;3.90;;
9860;SDS011;4969;52.304;4.968;2023-09-07T13:41:31;5.35;;;3.90;;
9860;SDS011;4969;52.304;4.968;2023-09-07T13:43:58;4.00;;;3.70;;
9860;SDS011;4969;52.304;4.968;2023-09-07T13:46:25;5.18;;;4.05;;
9860;SDS011;4969;52.304;4.968;2023-09-07T13:48:52;6.43;;;4.60;;
9860;SDS011;4969;52.304;4.968;2023-09-07T13:51:20;5.90;;;4.45;;
9860;SDS011;4969;52.304;4.968;2023-09-07T13:53:47;5.88;;;3.75;;
9860;SDS011;4969;52.304;4.968;2023-09-07T13:56:15;6.78;;;3.63;;
9860;SDS011;4969;52.304;4.968;2023-09-07T13:58:41;7.00;;;4.45;;
9860;SDS011;4969;52.304;4.968;2023-09-07T14:01:08;6.68;;;4.13;;
9860;SDS011;4969;52.304;4.968;2023-09-07T14:03:34;6.70;;;4.30;;
9860;SDS011;4969;52.304;4.968;2023-09-07T14:06:02;4.68;;;3.75;;
9860;SDS011;4969;52.304;4.968;2023-09-07T14:08:30;4.05;;;3.55;;
9860;SDS011;4969;52.304;4.968;2023-09-07T14:10:58;6.18;;;3.55;;
9860;SDS011;4969;52.304;4.968;2023-09-07T14:13:24;3.45;;;3.25;;
9860;SDS011;4969;52.304;4.968;2023-09-07T14:15:51;9.30;;;3.97;;
9860;SDS011;4969;52.304;4.968;2023-09-07T14:18:18;8.18;;;3.63;;
9860;SDS011;4969;52.304;4.968;2023-09-07T14:20:44;3.20;;;2.75;;
9860;SDS011;4969;52.304;4.968;2023-09-07T14:23:11;3.42;;;3.20;;
9860;SDS011;4969;52.304;4.968;2023-09-07T14:25:39;3.22;;;2.92;;
9860;SDS011;4969;52.304;4.968;2023-09-07T14:28:10;5.65;;;2.92;;
9860;SDS011;4969;52.304;4.968;2023-09-07T14:30:36;6.38;;;2.85;;
9860;SDS011;4969;52.304;4.968;2023-09-07T14:33:03;5.97;;;2.95;;
9860;SDS011;4969;52.304;4.968;2023-09-07T14:35:30;3.55;;;2.85;;
9860;SDS011;4969;52.304;4.968;2023-09-07T14:37:57;4.10;;;3.00;;
9860;SDS011;4969;52.304;4.968;2023-09-07T14:40:24;6.20;;;2.75;;
9860;SDS011;4969;52.304;4.968;2023-09-07T14:42:52;3.60;;;2.60;;
9860;SDS011;4969;52.304;4.968;2023-09-07T14:45:18;4.22;;;3.00;;
9860;SDS011;4969;52.304;4.968;2023-09-07T14:47:45;3.35;;;3.08;;
9860;SDS011;4969;52.304;4.968;2023-09-07T14:50:12;3.30;;;3.00;;
9860;SDS011;4969;52.304;4.968;2023-09-07T14:52:38;5.20;;;3.10;;
9860;SDS011;4969;52.304;4.968;2023-09-07T14:55:09;3.55;;;3.20;;
9860;SDS011;4969;52.304;4.968;2023-09-07T14:57:35;5.15;;;3.85;;
9860;SDS011;4969;52.304;4.968;2023-09-07T15:00:04;3.38;;;3.08;;
9860;SDS011;4969;52.304;4.968;2023-09-07T15:02:32;4.80;;;2.95;;
9860;SDS011;4969;52.304;4.968;2023-09-07T15:04:59;3.95;;;3.63;;
9860;SDS011;4969;52.304;4.968;2023-09-07T15:07:26;3.67;;;3.38;;
9860;SDS011;4969;52.304;4.968;2023-09-07T15:09:52;4.05;;;3.42;;
9860;SDS011;4969;52.304;4.968;2023-09-07T15:12:19;4.25;;;3.50;;
9860;SDS011;4969;52.304;4.968;2023-09-07T15:14:46;3.90;;;3.60;;
9860;SDS011;4969;52.304;4.968;2023-09-07T15:17:15;4.00;;;3.30;;
9860;SDS011;4969;52.304;4.968;2023-09-07T15:19:43;3.63;;;3.28;;